createdAt,value
2022-08-07T00:08:44.436Z,5.40
2022-08-07T00:19:07.721Z,5.13
2022-08-07T00:29:43.116Z,4.93
2022-08-07T00:40:10.918Z,4.65
2022-08-07T00:50:46.683Z,5.43
2022-08-07T01:01:14.507Z,4.65
2022-08-07T01:12:23.617Z,5.35
2022-08-07T01:22:22.872Z,5.55
2022-08-07T01:32:51.294Z,6.10
2022-08-07T01:43:15.413Z,6.15
2022-08-07T01:54:09.328Z,5.90
2022-08-07T02:04:28.028Z,4.97
2022-08-07T02:14:57.911Z,4.72
2022-08-07T02:26:10.242Z,5.30
2022-08-07T02:36:30.567Z,4.78
2022-08-07T02:47:01.095Z,5.20
2022-08-07T02:57:28.595Z,4.15
2022-08-07T03:08:07.371Z,5.07
2022-08-07T03:18:36.272Z,4.47
2022-08-07T03:29:10.453Z,4.30
2022-08-07T03:39:58.969Z,3.97
2022-08-07T03:50:22.993Z,4.32
2022-08-07T04:00:54.895Z,4.65
2022-08-07T04:12:25.606Z,4.38
2022-08-07T04:22:12.262Z,3.80
2022-08-07T04:32:44.771Z,3.70
2022-08-07T04:43:10.305Z,3.92
2022-08-07T04:54:01.580Z,3.13
2022-08-07T05:04:33.999Z,3.20
2022-08-07T05:15:23.358Z,3.10
2022-08-07T05:26:10.520Z,2.60
2022-08-07T05:36:35.639Z,2.17
2022-08-07T05:47:01.202Z,2.13
2022-08-07T05:57:26.634Z,2.03
2022-08-07T06:08:14.648Z,2.00
2022-08-07T06:18:38.195Z,1.80
2022-08-07T06:29:01.367Z,1.55
2022-08-07T06:40:12.892Z,2.10
2022-08-07T06:50:12.069Z,2.50
2022-08-07T07:00:42.385Z,2.38
2022-08-07T07:11:13.821Z,2.00
2022-08-07T07:22:11.994Z,1.47
2022-08-07T07:32:35.331Z,1.63
2022-08-07T07:43:15.255Z,1.90
2022-08-07T07:53:45.055Z,1.70
2022-08-07T08:04:18.486Z,2.00
2022-08-07T08:14:41.914Z,1.65
2022-08-07T08:25:41.987Z,1.50
2022-08-07T08:36:06.500Z,1.48
2022-08-07T08:46:44.851Z,1.73
2022-08-07T08:57:13.467Z,1.60
2022-08-07T09:07:57.849Z,1.75
2022-08-07T09:18:53.317Z,2.28
2022-08-07T09:30:04.270Z,1.52
2022-08-07T09:40:20.773Z,1.50
2022-08-07T09:50:55.439Z,1.45
2022-08-07T10:01:52.631Z,1.27
2022-08-07T10:12:34.395Z,1.40
2022-08-07T10:23:18.855Z,1.60
2022-08-07T10:34:18.469Z,1.75
2022-08-07T10:55:38.514Z,1.80
2022-08-07T11:06:08.421Z,1.35
2022-08-07T11:16:37.487Z,1.50
2022-08-07T11:27:08.320Z,1.58
2022-08-07T11:38:10.445Z,1.65
2022-08-07T11:49:27.861Z,1.63
2022-08-07T12:00:12.127Z,1.20
2022-08-07T12:10:48.157Z,1.50
2022-08-07T12:21:55.560Z,1.20
2022-08-07T12:32:22.914Z,1.40
2022-08-07T12:42:54.942Z,1.40
2022-08-07T12:53:25.268Z,1.67
2022-08-07T13:04:04.718Z,2.43
2022-08-07T13:14:36.774Z,1.20
2022-08-07T13:25:03.230Z,1.30
2022-08-07T13:36:01.317Z,1.38
2022-08-07T13:46:23.324Z,1.50
2022-08-07T13:56:51.916Z,1.20
2022-08-07T14:07:21.105Z,1.37
2022-08-07T14:18:27.257Z,1.50
2022-08-07T14:28:33.179Z,2.50
2022-08-07T14:40:17.752Z,1.35
2022-08-07T15:00:40.596Z,1.30
2022-08-07T15:11:07.654Z,1.77
2022-08-07T15:21:44.151Z,1.60
2022-08-07T15:32:11.659Z,1.30
2022-08-07T15:42:51.896Z,1.40
2022-08-07T15:53:24.746Z,1.50
2022-08-07T16:04:14.913Z,1.25
2022-08-07T16:14:59.300Z,1.58
2022-08-07T16:25:52.678Z,1.65
2022-08-07T16:36:31.409Z,1.75
2022-08-07T16:47:45.181Z,1.75
2022-08-07T16:58:17.354Z,1.77
2022-08-07T17:09:10.589Z,1.60
2022-08-07T17:20:02.253Z,1.77
2022-08-07T17:30:26.812Z,1.60
2022-08-07T17:40:59.746Z,1.67
2022-08-07T17:52:00.368Z,1.87
2022-08-07T18:02:32.650Z,2.10
2022-08-07T18:13:15.265Z,1.60
2022-08-07T18:23:57.508Z,2.35
2022-08-07T18:45:44.694Z,2.33
2022-08-07T18:56:31.860Z,2.20
2022-08-07T19:06:59.113Z,2.45
2022-08-07T19:17:59.274Z,4.03
2022-08-07T19:28:30.086Z,5.25
2022-08-07T19:39:08.822Z,3.03
2022-08-07T19:49:56.715Z,3.22
2022-08-07T20:00:28.201Z,2.80
2022-08-07T20:21:22.456Z,2.88
2022-08-07T20:31:46.940Z,4.65
2022-08-07T20:42:13.958Z,2.97
2022-08-07T20:52:51.442Z,4.20
2022-08-07T21:03:22.991Z,2.90
2022-08-07T21:14:20.079Z,2.55
2022-08-07T21:24:50.784Z,2.40
2022-08-07T21:35:34.888Z,2.47
2022-08-07T21:46:24.746Z,2.20
2022-08-07T21:57:05.179Z,2.30
2022-08-07T22:07:58.103Z,2.72
2022-08-07T22:18:25.004Z,2.50
2022-08-07T22:28:54.836Z,2.45
2022-08-07T22:39:28.319Z,2.70
2022-08-07T22:50:20.833Z,2.97
2022-08-07T23:01:08.052Z,2.63
2022-08-07T23:11:46.233Z,2.53
2022-08-07T23:22:18.528Z,2.97
2022-08-07T23:34:22.666Z,2.95
2022-08-07T23:44:18.126Z,3.00
2022-08-07T23:54:55.246Z,2.95
